Latest Weather Observations for Ouse

IDT60801

Issued at 10:32 am EDT Monday 27 February 2017 (issued every 30 minutes, with the page automatically refreshed every 10 minutes)

About weather observations | Map of weather stations | Latest weather observations for TAS | Other Formats
Station Details ID: 095048 Name: OUSE FIRE STATION Lat: -42.48 Lon: 146.71 Height: 90.0 m
Data from the previous 72 hours. | See also: Recent months at Ouse
Date/Time
EDT
Temp
°C
App
Temp
°C
Dew
Point
°C
Rel
Hum
%
Delta-T
°C
Wind Press
QNH
hPa
Press
MSL
hPa
Rain since
9am
mm
Dir  Spd
km/h
Gust
km/h
Spd
kts
Gust
kts
27/10:30am 17.1 16.0 9.8 62 3.8 SSE 6 11 3 6 1026.2 1026.1 0.0
27/10:00am 15.3 14.0 9.2 67 3.1 E 6 7 3 4 1026.6 1026.5 0.0
27/09:30am 13.7 13.1 9.0 73 2.4 ENE 2 7 1 4 1026.8 1026.7 0.0
27/09:00am 11.6 10.4 8.1 79 1.7 NE 4 7 2 4 1027.1 1027.0 0.0
27/08:30am 9.6 9.1 7.7 88 0.9 CALM 0 6 0 3 1027.1 1027.0 0.0
27/08:00am 7.6 7.0 7.2 97 0.2 CALM 0 0 0 0 1027.2 1027.1 0.0
27/07:30am 5.0 3.5 4.9 99 0.0 NNW 2 7 1 4 1027.1 1027.0 0.0
27/07:00am 4.3 1.8 3.9 97 0.2 NNW 6 9 3 5 1026.7 1026.6 0.0
27/06:30am 4.8 3.6 4.5 98 0.1 CALM 0 0 0 0 1026.5 1026.4 0.0
27/06:00am 5.2 4.0 4.8 97 0.2 CALM 0 0 0 0 1026.2 1026.1 0.0
27/05:30am 5.8 4.8 5.4 97 0.2 CALM 0 0 0 0 1026.0 1025.9 0.0
27/05:00am 6.4 5.5 6.0 97 0.2 CALM 0 0 0 0 1025.9 1025.8 0.0
27/04:30am 6.6 5.0 6.2 97 0.2 N 4 6 2 3 1025.7 1025.6 0.0
27/04:00am 7.1 6.3 6.4 95 0.3 CALM 0 0 0 0 1025.7 1025.6 0.0
27/03:30am 7.5 6.7 6.6 94 0.4 CALM 0 2 0 1 1025.7 1025.6 0.0
27/03:00am 8.2 7.5 7.1 93 0.5 CALM 0 0 0 0 1025.7 1025.6 0.0
27/02:30am 8.8 8.3 7.7 93 0.5 CALM 0 0 0 0 1025.5 1025.4 0.0
27/02:00am 9.1 7.4 7.5 90 0.8 N 6 7 3 4 1025.6 1025.5 0.0
27/01:30am 9.8 9.3 7.9 88 0.9 CALM 0 0 0 0 1025.6 1025.5 0.0
27/01:00am 10.6 10.3 8.5 87 1.0 CALM 0 6 0 3 1025.5 1025.4 0.0
27/12:30am 11.8 10.9 9.4 85 1.2 NE 4 7 2 4 1025.5 1025.4 0.0
27/12:00am 13.1 12.3 9.7 80 1.7 NNE 4 7 2 4 1025.5 1025.4 0.0
 
Date/Time
EDT
Temp
°C
App
Temp
°C
Dew
Point
°C
Rel
Hum
%
Delta-T
°C
Wind Press
QNH
hPa
Press
MSL
hPa
Rain since
9am
mm
Dir  Spd
km/h
Gust
km/h
Spd
kts
Gust
kts
26/11:30pm 14.4 13.1 9.8 74 2.4 S 7 11 4 6 1025.5 1025.4 0.0
26/11:00pm 15.3 13.7 10.1 71 2.7 S 9 13 5 7 1025.4 1025.3 0.0
26/10:30pm 15.9 14.3 10.2 69 3.0 SSE 9 13 5 7 1025.3 1025.2 0.0
26/10:00pm 16.7 14.4 10.5 67 3.3 SSE 13 17 7 9 1025.1 1025.0 0.0
26/09:30pm 17.3 15.0 10.4 64 3.7 SSE 13 17 7 9 1024.7 1024.6 0.0
26/09:00pm 18.1 15.4 10.5 61 4.1 SE 15 22 8 12 1024.2 1024.1 0.0
26/08:30pm 18.8 15.4 10.4 58 4.5 SE 19 26 10 14 1023.8 1023.7 0.0
26/08:00pm 19.9 16.8 10.3 54 5.2 S 17 24 9 13 1023.3 1023.1 0.0
26/07:30pm 21.3 18.3 10.5 50 5.9 ESE 17 24 9 13 1022.8 1022.6 0.0
26/07:00pm 22.9 19.1 9.7 43 7.2 ESE 20 28 11 15 1022.5 1022.3 0.0
26/06:30pm 24.7 22.2 9.8 39 8.2 SE 13 20 7 11 1022.2 1022.0 0.0
26/06:00pm 25.0 22.8 9.3 37 8.6 SSE 11 17 6 9 1021.8 1021.6 0.0
26/05:30pm 25.1 22.3 8.6 35 8.9 SE 13 17 7 9 1021.8 1021.6 0.0
26/05:00pm 24.9 22.5 8.8 36 8.7 SE 11 15 6 8 1021.9 1021.7 0.0
26/04:30pm 25.0 23.4 8.9 36 8.7 ESE 7 11 4 6 1022.1 1021.9 0.0
26/04:00pm 24.3 21.5 8.7 37 8.4 SE 13 19 7 10 1022.3 1022.1 0.0
26/03:30pm 25.0 22.2 8.5 35 8.9 SE 13 19 7 10 1022.6 1022.4 0.0
26/03:00pm 24.7 23.2 9.0 37 8.5 NE 7 13 4 7 1022.8 1022.6 0.0
26/02:30pm 24.3 22.5 9.5 39 8.1 SW 9 20 5 11 1023.3 1023.1 0.0
26/02:00pm 23.4 21.4 8.7 39 7.9 SSE 9 13 5 7 1023.6 1023.5 0.0
26/01:30pm 22.1 19.5 9.3 44 6.9 ESE 13 17 7 9 1023.8 1023.7 0.0
26/01:00pm 21.6 20.1 9.2 45 6.6 ESE 7 13 4 7 1024.3 1024.2 0.0
26/12:30pm 20.7 19.3 9.6 49 6.0 E 7 15 4 8 1024.7 1024.6 0.0
26/12:00pm 20.4 19.0 9.6 50 5.8 ENE 7 13 4 7 1025.0 1024.9 0.0
26/11:30am 17.5 15.0 9.7 60 4.1 SE 13 17 7 9 1025.4 1025.3 0.0
26/11:00am 16.3 14.0 9.0 62 3.8 SE 11 15 6 8 1025.8 1025.7 0.0
26/10:30am 15.6 14.1 8.6 63 3.6 E 6 9 3 5 1026.2 1026.1 0.0
26/10:00am 13.9 12.3 7.9 67 3.0 ENE 6 9 3 5 1026.5 1026.4 0.0
26/09:30am 11.7 9.8 6.8 72 2.3 E 6 9 3 5 1026.7 1026.6 0.0
26/09:00am 9.8 7.8 6.2 78 1.7 NE 6 7 3 4 1026.9 1026.8 0.0
26/08:30am 7.5 6.5 5.6 88 0.9 CALM 0 0 0 0 1026.9 1026.8 0.0
26/08:00am 5.1 3.9 4.4 95 0.3 CALM 0 0 0 0 1026.9 1026.8 0.0
26/07:30am 3.7 2.3 3.3 97 0.2 CALM 0 0 0 0 1026.8 1026.7 0.0
26/07:00am 3.5 2.0 2.9 96 0.2 CALM 0 0 0 0 1026.2 1026.1 0.0
26/06:30am 3.6 2.1 3.2 97 0.2 CALM 0 0 0 0 1026.2 1026.1 0.0
26/06:00am 3.9 2.5 3.3 96 0.2 CALM 0 0 0 0 1025.8 1025.7 0.0
26/05:30am 4.4 3.0 3.8 96 0.3 CALM 0 0 0 0 1025.6 1025.5 0.0
26/05:00am 4.1 2.7 3.5 96 0.2 CALM 0 0 0 0 1025.4 1025.3 0.0
26/04:30am 4.4 2.3 3.8 96 0.3 N 4 7 2 4 1025.2 1025.1 0.0
26/04:00am 4.7 3.4 4.3 97 0.2 CALM 0 0 0 0 1025.8 1025.7 0.0
26/03:30am 4.6 2.1 3.7 94 0.4 NNW 6 7 3 4 1025.8 1025.7 0.0
26/03:00am 5.1 2.7 4.2 94 0.4 NNW 6 7 3 4 1026.0 1025.9 0.0
26/02:30am 5.4 3.4 4.4 93 0.4 NNW 4 7 2 4 1026.4 1026.3 0.0
26/02:00am 6.1 4.5 4.7 91 0.6 WSW 2 7 1 4 1026.5 1026.4 0.0
26/01:30am 6.6 5.4 4.8 88 0.8 CALM 0 0 0 0 1026.4 1026.3 0.0
26/01:00am 7.3 6.2 5.3 87 0.9 CALM 0 0 0 0 1026.3 1026.2 0.0
26/12:30am 8.3 7.3 5.6 83 1.2 CALM 0 0 0 0 1026.8 1026.7 0.0
26/12:00am 9.2 7.1 5.9 80 1.5 SW 6 7 3 4 1026.6 1026.5 0.0
 
Date/Time
EDT
Temp
°C
App
Temp
°C
Dew
Point
°C
Rel
Hum
%
Delta-T
°C
Wind Press
QNH
hPa
Press
MSL
hPa
Rain since
9am
mm
Dir  Spd
km/h
Gust
km/h
Spd
kts
Gust
kts
25/11:30pm 10.2 8.0 6.0 75 2.0 S 7 9 4 5 1026.8 1026.7 0.0
25/11:00pm 11.7 9.7 6.4 70 2.5 S 6 7 3 4 1026.9 1026.8 0.0
25/10:30pm 12.5 10.4 6.8 68 2.7 S 7 9 4 5 1027.0 1026.9 0.0
25/10:00pm 12.9 10.8 6.7 66 3.0 SSE 7 11 4 6 1026.8 1026.7 0.0
25/09:30pm 13.8 9.3 6.9 63 3.4 SE 20 30 11 16 1026.4 1026.3 0.0
25/09:00pm 14.7 10.6 6.3 57 4.0 S 17 24 9 13 1025.5 1025.4 0.0
25/08:30pm 16.3 12.9 5.9 50 5.1 ESE 13 22 7 12 1024.8 1024.7 0.0
25/08:00pm 17.8 14.8 6.0 46 5.8 ESE 11 17 6 9 1024.2 1024.1 0.0
25/07:30pm 19.5 16.5 4.0 36 7.4 SW 9 11 5 6 1023.7 1023.6 0.0
25/07:00pm 20.4 16.9 3.6 33 8.0 SE 11 15 6 8 1023.5 1023.3 0.0
25/06:30pm 20.8 17.4 4.0 33 8.1 SE 11 15 6 8 1023.5 1023.3 0.0
25/06:00pm 21.0 17.2 4.1 33 8.2 SE 13 20 7 11 1023.3 1023.1 0.0
25/05:30pm 21.3 17.7 4.8 34 8.1 SSE 13 20 7 11 1023.3 1023.1 0.0
25/05:00pm 21.4 18.2 5.3 35 8.0 SE 11 17 6 9 1023.3 1023.1 0.0
25/04:30pm 21.3 18.3 6.0 37 7.7 SSE 11 17 6 9 1023.6 1023.5 0.0
25/04:00pm 20.0 15.7 5.3 38 7.2 ESE 17 24 9 13 1023.8 1023.7 0.0
25/03:30pm 20.2 16.6 5.1 37 7.4 ESE 13 19 7 10 1024.1 1024.0 0.0
25/03:00pm 19.8 15.9 5.5 39 7.0 ESE 15 24 8 13 1024.4 1024.3 0.0
25/02:30pm 19.4 16.1 6.2 42 6.6 E 13 20 7 11 1024.9 1024.8 0.0
25/02:00pm 19.7 16.4 6.4 42 6.6 SE 13 20 7 11 1025.3 1025.2 0.0
25/01:30pm 18.3 15.4 4.5 40 6.6 SSE 9 15 5 8 1025.7 1025.6 0.0
25/01:00pm 17.2 13.8 4.2 42 6.1 SE 11 19 6 10 1026.1 1026.0 0.0
25/12:30pm 16.9 13.9 3.9 42 6.1 E 9 17 5 9 1026.3 1026.2 0.0
25/12:00pm 15.9 12.9 4.0 45 5.5 ENE 9 15 5 8 1026.8 1026.7 0.0
25/11:30am 15.6 13.1 4.9 49 5.1 SSE 7 17 4 9 1027.0 1026.9 0.0
25/11:00am 14.6 11.8 5.1 53 4.4 ESE 9 15 5 8 1027.4 1027.3 0.0
25/10:30am 14.3 13.4 6.2 58 3.9 CALM 0 7 0 4 1027.7 1027.5 0.0
25/10:00am 12.8 11.3 6.8 67 2.9 S 4 7 2 4 1027.8 1027.6 0.0
25/09:30am 10.6 8.5 6.7 77 1.8 SE 7 9 4 5 1028.1 1027.9 0.0
25/09:00am 8.7 6.4 5.6 81 1.4 SE 7 9 4 5 1028.4 1028.2 0.0
25/08:30am 7.2 5.7 5.0 86 1.0 NW 2 6 1 3 1028.2 1028.0 0.0
25/08:00am 5.1 3.9 4.7 97 0.2 CALM 0 0 0 0 1028.0 1027.8 0.0
25/07:30am 2.9 0.9 2.5 97 0.2 NW 2 6 1 3 1027.9 1027.7 0.0
25/07:00am 2.6 0.2 2.0 96 0.2 WNW 4 7 2 4 1027.4 1027.3 0.0
25/06:30am 3.2 1.6 2.5 95 0.3 CALM 0 0 0 0 1027.2 1027.1 0.0
25/06:00am 3.7 2.2 2.8 94 0.4 CALM 0 0 0 0 1026.9 1026.8 0.0
25/05:30am 4.2 2.8 3.5 95 0.3 CALM 0 6 0 3 1026.5 1026.4 0.0
25/05:00am 4.9 3.6 3.9 93 0.4 CALM 0 0 0 0 1026.4 1026.3 0.0
25/04:30am 5.1 3.7 3.6 90 0.6 CALM 0 0 0 0 1026.4 1026.3 0.0
25/04:00am 6.1 4.5 4.4 89 0.7 SW 2 6 1 3 1026.0 1025.9 0.0
25/03:30am 7.0 5.9 5.2 88 0.8 CALM 0 0 0 0 1025.8 1025.7 0.0
25/03:00am 7.7 5.3 5.3 85 1.1 SSE 7 9 4 5 1025.9 1025.8 0.0
25/02:30am 8.0 5.8 5.3 83 1.2 WNW 6 9 3 5 1025.7 1025.6 0.0
25/02:00am 9.0 6.0 6.1 82 1.3 NNE 11 15 6 8 1025.9 1025.8 0.0
25/01:30am 6.4 2.8 4.9 90 0.7 WNW 13 20 7 11 1025.8 1025.7 0.0
25/01:00am 7.4 4.2 5.2 86 1.0 NNW 11 15 6 8 1025.7 1025.6 0.0
25/12:30am 7.2 4.4 5.2 87 0.9 N 9 11 5 6 1025.6 1025.5 0.0
25/12:00am 6.9 3.5 5.7 92 0.5 N 13 17 7 9 1025.5 1025.4 0.0
 
Date/Time
EDT
Temp
°C
App
Temp
°C
Dew
Point
°C
Rel
Hum
%
Delta-T
°C
Wind Press
QNH
hPa
Press
MSL
hPa
Rain since
9am
mm
Dir  Spd
km/h
Gust
km/h
Spd
kts
Gust
kts
24/11:30pm 7.1 6.1 5.7 91 0.6 CALM 0 0 0 0 1025.4 1025.3 0.0
24/11:00pm 7.8 5.7 6.6 92 0.6 NNE 7 9 4 5 1025.4 1025.3 0.0
24/10:30pm 8.4 7.6 6.7 89 0.8 CALM 0 0 0 0 1025.4 1025.3 0.0
24/10:00pm 9.0 6.6 7.0 87 0.9 N 9 11 5 6 1025.1 1025.0 0.0
24/09:30pm 10.3 9.7 7.4 82 1.4 CALM 0 0 0 0 1024.7 1024.6 0.0
24/09:00pm 11.1 8.8 7.6 79 1.7 NNW 9 13 5 7 1024.3 1024.2 0.0
24/08:30pm 13.0 10.2 8.5 74 2.3 NW 13 15 7 8 1023.7 1023.6 0.0
24/08:00pm 13.4 11.7 8.3 71 2.5 NNW 7 11 4 6 1023.5 1023.3 0.0
24/07:30pm 14.8 12.3 8.3 65 3.3 W 11 15 6 8 1023.2 1023.0 0.0
24/07:00pm 15.2 11.9 8.0 62 3.6 W 15 20 8 11 1022.9 1022.7 0.0
24/06:30pm 15.3 11.9 7.8 61 3.8 WSW 15 22 8 12 1022.8 1022.6 0.0
24/06:00pm 15.8 12.9 8.3 61 3.8 WSW 13 20 7 11 1022.6 1022.4 0.0
24/05:30pm 15.6 11.7 8.8 64 3.5 WSW 19 30 10 16 1022.0 1021.8 0.0
24/05:00pm 16.0 10.1 9.0 63 3.6 WSW 30 44 16 24 1022.0 1021.8 0.0
24/04:30pm 16.6 12.0 10.9 69 3.1 WSW 26 33 14 18 1021.5 1021.3 0.0
24/04:00pm 18.7 14.8 9.5 55 4.9 WSW 20 39 11 21 1020.8 1020.6 0.0
24/03:30pm 18.1 14.7 9.2 56 4.7 W 17 24 9 13 1020.7 1020.5 0.0
24/03:00pm 18.4 15.5 9.5 56 4.7 SW 15 24 8 13 1020.7 1020.5 0.0
24/02:30pm 18.3 15.1 9.9 58 4.5 WNW 17 32 9 17 1021.0 1020.8 0.0
24/02:00pm 17.6 13.5 8.7 56 4.6 NW 20 35 11 19 1020.9 1020.7 0.0
24/01:30pm 18.3 14.2 8.6 53 5.0 W 20 33 11 18 1020.7 1020.5 0.0
24/01:00pm 18.3 14.0 8.0 51 5.3 NW 20 30 11 16 1020.8 1020.6 0.0
24/12:30pm 17.9 14.0 8.5 54 4.9 NW 19 26 10 14 1021.1 1020.9 0.0
24/12:00pm 16.6 12.9 7.8 56 4.4 WNW 17 26 9 14 1021.6 1021.4 0.0
24/11:30am 16.3 12.2 7.8 57 4.3 NW 19 30 10 16 1021.9 1021.7 0.0
24/11:00am 16.4 12.4 8.9 61 3.9 WNW 20 32 11 17 1022.0 1021.8 0.0

Other Formats:

Comma delimited format used in spreadsheet applications
http://www.bom.gov.au/fwo/IDT60801/IDT60801.94957.axf

JavaScript Object Notation format (JSON) in row-major order
http://www.bom.gov.au/fwo/IDT60801/IDT60801.94957.json